Time;durP1;ratioP1;P1;durP2;ratioP2;P2;SDS_P1;SDS_P2;PMS_P1;PMS_P2;Temp;Humidity;BMP_temperature;BMP_pressure;BME280_temperature;BME280_humidity;BME280_pressure;Samples;Min_cycle;Max_cycle;Signal;HPM_P1;HPM_P2
2024/02/13 00:01:46;;;;;;;19.40;11.20;;;;;;;8.58;89.98;98267.79;107196;1260;59266;-39
2024/02/13 00:04:14;;;;;;;18.40;9.60;;;;;;;8.55;89.88;98264.37;107185;1257;73651;-40
2024/02/13 00:06:42;;;;;;;17.20;9.90;;;;;;;8.56;89.57;98260.92;107214;1257;68388;-39
2024/02/13 00:09:10;;;;;;;16.40;9.70;;;;;;;8.56;89.23;98263.45;107161;1258;71590;-39
2024/02/13 00:11:38;;;;;;;19.40;10.00;;;;;;;8.50;89.46;98256.99;107265;1257;59674;-40
2024/02/13 00:14:07;;;;;;;19.10;9.20;;;;;;;8.44;89.59;98254.85;107226;1257;59542;-40
2024/02/13 00:16:38;;;;;;;17.00;9.30;;;;;;;8.43;89.61;98254.53;107208;1257;73045;-40
2024/02/13 00:19:06;;;;;;;15.80;8.70;;;;;;;8.46;89.65;98255.51;107224;1257;68425;-40
2024/02/13 00:21:34;;;;;;;15.20;8.90;;;;;;;8.45;89.66;98256.64;107221;1257;72746;-41
2024/02/13 00:24:01;;;;;;;18.80;10.10;;;;;;;8.40;89.73;98258.36;107220;1257;59698;-40
2024/02/13 00:26:29;;;;;;;18.70;9.30;;;;;;;8.35;89.81;98258.02;107128;1257;59485;-40
2024/02/13 00:28:56;;;;;;;15.20;8.90;;;;;;;8.40;89.68;98258.75;107080;1258;71772;-41
2024/02/13 00:31:24;;;;;;;16.60;9.10;;;;;;;8.41;89.69;98262.55;107095;1257;68890;-41
2024/02/13 00:33:53;;;;;;;15.40;9.60;;;;;;;8.38;89.88;98261.73;107113;1258;72444;-40
2024/02/13 00:36:22;;;;;;;19.60;9.80;;;;;;;8.32;89.85;98264.39;107147;1257;61676;-40
2024/02/13 00:38:49;;;;;;;17.30;8.50;;;;;;;8.34;89.88;98259.09;107056;1257;60036;-41
2024/02/13 00:41:17;;;;;;;18.70;9.40;;;;;;;8.38;89.70;98257.80;107212;1257;73038;-40
2024/02/13 00:43:45;;;;;;;15.00;9.00;;;;;;;8.35;89.68;98256.46;107181;1257;67078;-40
2024/02/13 00:46:12;;;;;;;16.80;8.90;;;;;;;8.32;89.92;98259.54;107180;1257;71504;-41
2024/02/13 00:48:40;;;;;;;14.30;8.00;;;;;;;8.31;89.97;98259.67;107199;1262;60423;-41
2024/02/13 00:51:08;;;;;;;17.80;7.20;;;;;;;8.35;89.89;98256.39;107208;1256;59965;-41
2024/02/13 00:53:38;;;;;;;13.10;7.80;;;;;;;8.41;89.81;98258.38;107242;1257;73160;-41
2024/02/13 00:56:07;;;;;;;17.50;8.20;;;;;;;8.41;89.61;98269.17;107220;1257;68420;-41
2024/02/13 00:58:38;;;;;;;13.40;8.00;;;;;;;8.39;89.76;98279.17;107189;1257;72766;-41
2024/02/13 01:01:06;;;;;;;16.00;7.50;;;;;;;8.39;89.73;98275.33;107210;1260;60953;-41
2024/02/13 01:03:34;;;;;;;14.80;7.30;;;;;;;8.41;89.42;98275.11;107169;1257;59120;-41
2024/02/13 01:06:03;;;;;;;12.70;7.40;;;;;;;8.46;89.36;98279.02;107070;1258;71813;-40
2024/02/13 01:08:33;;;;;;;13.10;7.80;;;;;;;8.46;89.36;98277.56;107171;1257;68410;-40
2024/02/13 01:11:00;;;;;;;16.10;7.70;;;;;;;8.46;89.52;98276.26;107146;1262;72937;-41
2024/02/13 01:13:31;;;;;;;15.10;7.20;;;;;;;8.44;89.44;98273.99;107100;1258;60463;-41
2024/02/13 01:16:00;;;;;;;13.10;6.60;;;;;;;8.48;89.01;98267.70;107101;1257;59953;-40
2024/02/13 01:18:29;;;;;;;15.70;7.30;;;;;;;8.54;88.83;98271.54;107115;1257;73032;-40
2024/02/13 01:20:57;;;;;;;14.30;7.70;;;;;;;8.56;88.81;98269.10;107151;1257;68357;-41
2024/02/13 01:23:24;;;;;;;13.50;7.60;;;;;;;8.56;88.71;98273.35;107112;1257;71273;-41
2024/02/13 01:25:52;;;;;;;14.60;7.30;;;;;;;8.56;88.70;98278.98;107097;1257;61669;-41
2024/02/13 01:28:20;;;;;;;12.50;6.50;;;;;;;8.60;88.32;98285.64;107105;1257;59318;-41
2024/02/13 01:30:48;;;;;;;12.40;6.90;;;;;;;8.63;87.78;98284.51;107115;1256;72344;-41
2024/02/13 01:33:15;;;;;;;15.90;6.50;;;;;;;8.61;87.59;98278.70;106940;1257;67614;-41
2024/02/13 01:35:43;;;;;;;14.40;6.70;;;;;;;8.57;87.64;98280.91;106975;1259;72341;-41
2024/02/13 01:38:11;;;;;;;14.80;6.70;;;;;;;8.55;87.64;98286.21;106922;1257;60392;-41
2024/02/13 01:40:39;;;;;;;15.70;6.80;;;;;;;8.58;87.47;98287.10;106958;1258;59525;-41
2024/02/13 01:43:06;;;;;;;12.50;6.60;;;;;;;8.60;86.96;98283.26;106983;1257;71798;-40
2024/02/13 01:45:34;;;;;;;10.80;6.50;;;;;;;8.55;86.90;98282.05;106974;1257;67440;-40
2024/02/13 01:48:04;;;;;;;15.90;6.60;;;;;;;8.50;86.92;98282.92;107023;1258;72794;-41
2024/02/13 01:50:32;;;;;;;14.90;6.60;;;;;;;8.46;87.07;98288.05;107016;1257;60405;-41
2024/02/13 01:53:00;;;;;;;12.30;6.10;;;;;;;8.48;86.94;98287.38;107004;1257;60182;-40
2024/02/13 01:55:29;;;;;;;10.50;6.10;;;;;;;8.53;86.71;98278.48;107031;1257;72122;-41
2024/02/13 01:57:58;;;;;;;13.80;6.20;;;;;;;8.52;86.75;98275.23;106922;1257;67407;-40
2024/02/13 02:00:28;;;;;;;13.00;6.10;;;;;;;8.51;86.90;98274.22;106929;1257;72704;-40
2024/02/13 02:02:56;;;;;;;12.40;6.30;;;;;;;8.49;86.97;98276.90;106920;1257;61686;-40
2024/02/13 02:05:23;;;;;;;12.60;6.20;;;;;;;8.52;86.62;98275.31;106922;1258;60458;-41
2024/02/13 02:07:52;;;;;;;10.60;5.70;;;;;;;8.58;86.30;98274.89;106956;1257;73765;-41
2024/02/13 02:10:19;;;;;;;12.00;5.90;;;;;;;8.56;86.07;98274.27;107018;1257;68425;-40
2024/02/13 02:12:49;;;;;;;13.00;6.30;;;;;;;8.51;86.00;98274.98;106978;1260;71444;-41
2024/02/13 02:15:19;;;;;;;10.90;5.60;;;;;;;8.48;86.13;98275.95;107020;1257;60315;-41
2024/02/13 02:17:53;;;;;;;12.70;5.60;;;;;;;8.46;86.20;98277.66;107042;1257;60427;-40
2024/02/13 02:20:22;;;;;;;12.40;5.90;;;;;;;8.50;85.94;98276.36;107043;1257;72583;-40
2024/02/13 02:22:50;;;;;;;11.80;5.50;;;;;;;8.53;85.45;98277.16;107080;1257;68454;-41
2024/02/13 02:25:24;;;;;;;14.10;5.60;;;;;;;8.48;85.37;98280.75;107079;1257;72793;-40
2024/02/13 02:27:53;;;;;;;9.90;6.30;;;;;;;8.41;85.22;98289.17;107036;1257;60398;-40
2024/02/13 02:30:20;;;;;;;14.60;6.00;;;;;;;8.35;85.38;98298.35;107022;1257;60519;-41
2024/02/13 02:32:48;;;;;;;12.90;5.20;;;;;;;8.30;85.36;98301.54;107049;1257;74213;-41
2024/02/13 02:35:18;;;;;;;11.10;5.60;;;;;;;8.31;84.94;98298.93;107030;1263;68512;-40
2024/02/13 02:37:50;;;;;;;11.00;5.50;;;;;;;8.30;84.70;98298.05;107017;1257;72425;-40
2024/02/13 02:40:18;;;;;;;12.60;5.80;;;;;;;8.25;84.70;98293.90;107032;1260;60514;-41
2024/02/13 02:42:48;;;;;;;15.80;5.90;;;;;;;8.17;84.50;98293.20;107102;1257;60328;-40
2024/02/13 02:45:16;;;;;;;12.90;6.10;;;;;;;8.09;84.40;98297.13;106902;1257;73973;-40
2024/02/13 02:47:43;;;;;;;14.20;5.80;;;;;;;7.99;84.27;98298.23;107054;1257;67148;-41
2024/02/13 02:50:11;;;;;;;13.30;5.10;;;;;;;7.95;84.11;98296.49;107038;1260;71419;-41
2024/02/13 02:52:39;;;;;;;11.80;5.80;;;;;;;7.97;84.07;98293.73;107104;1257;60427;-40
2024/02/13 02:55:07;;;;;;;15.60;6.20;;;;;;;7.97;84.13;98300.99;107049;1257;60518;-40
2024/02/13 02:57:38;;;;;;;13.50;6.50;;;;;;;7.95;83.90;98302.74;107083;1262;73836;-41
2024/02/13 03:00:09;;;;;;;9.30;5.30;;;;;;;7.91;83.79;98297.98;107044;1257;67456;-40
2024/02/13 03:02:37;;;;;;;10.50;5.40;;;;;;;7.84;83.65;98300.98;107032;1257;72694;-40
2024/02/13 03:05:05;;;;;;;11.60;5.50;;;;;;;7.78;83.18;98290.52;107028;1257;61737;-40
2024/02/13 03:07:36;;;;;;;10.50;5.30;;;;;;;7.81;82.71;98297.48;107188;1257;60444;-41
2024/02/13 03:10:10;;;;;;;9.50;5.00;;;;;;;7.73;82.55;98295.38;107093;1259;73982;-40
2024/02/13 03:12:38;;;;;;;10.50;5.30;;;;;;;7.63;82.62;98298.70;107127;1257;67675;-40
2024/02/13 03:15:06;;;;;;;10.70;4.90;;;;;;;7.54;82.69;98298.83;107085;1257;71481;-41
2024/02/13 03:17:37;;;;;;;11.20;4.80;;;;;;;7.51;82.33;98298.84;107057;1260;60568;-40
2024/02/13 03:20:10;;;;;;;10.00;4.20;;;;;;;7.49;81.83;98299.52;107155;1257;59330;-40
2024/02/13 03:22:39;;;;;;;8.10;4.40;;;;;;;7.41;81.48;98306.96;107133;1257;73648;-41
2024/02/13 03:25:07;;;;;;;10.80;4.60;;;;;;;7.33;81.51;98310.77;107065;1260;68382;-41
2024/02/13 03:27:35;;;;;;;8.30;5.00;;;;;;;7.28;81.64;98315.92;107089;1257;72777;-40
2024/02/13 03:30:03;;;;;;;11.10;4.80;;;;;;;7.23;81.71;98322.02;107156;1257;60485;-40
2024/02/13 03:32:31;;;;;;;13.60;5.50;;;;;;;7.23;81.75;98321.33;107161;1257;59243;-41
2024/02/13 03:34:58;;;;;;;9.60;4.50;;;;;;;7.26;81.74;98333.16;107029;1257;73915;-40
2024/02/13 03:37:26;;;;;;;7.70;4.30;;;;;;;7.23;81.77;98331.80;107062;1257;68430;-40
2024/02/13 03:39:54;;;;;;;7.90;4.70;;;;;;;7.17;81.50;98336.40;107096;1257;72701;-40
2024/02/13 03:42:21;;;;;;;6.70;3.60;;;;;;;7.10;81.12;98342.06;107119;1257;60435;-41
2024/02/13 03:44:49;;;;;;;11.10;5.10;;;;;;;7.01;80.82;98337.92;107078;1257;60358;-40
2024/02/13 03:47:16;;;;;;;8.90;4.70;;;;;;;6.92;80.59;98336.09;107105;1257;73867;-40
2024/02/13 03:49:44;;;;;;;13.40;5.70;;;;;;;6.89;80.44;98338.57;107084;1257;67138;-40
2024/02/13 03:52:11;;;;;;;10.80;5.40;;;;;;;6.90;80.72;98336.50;107117;1257;72770;-40
2024/02/13 03:54:39;;;;;;;13.00;5.30;;;;;;;6.87;81.12;98339.07;107092;1257;60421;-40
2024/02/13 03:57:06;;;;;;;9.70;5.90;;;;;;;6.84;81.39;98346.10;107072;1257;60510;-41
2024/02/13 03:59:36;;;;;;;11.00;5.70;;;;;;;6.79;81.57;98353.95;107064;1257;73916;-41
2024/02/13 04:02:04;;;;;;;12.30;6.00;;;;;;;6.75;81.64;98352.25;107057;1257;68434;-40
2024/02/13 04:04:31;;;;;;;12.50;5.50;;;;;;;6.76;81.48;98354.89;107004;1257;72710;-40
2024/02/13 04:06:59;;;;;;;11.30;5.30;;;;;;;6.77;81.22;98352.36;107081;1257;60393;-41
2024/02/13 04:09:26;;;;;;;10.80;5.40;;;;;;;6.71;81.11;98356.81;107052;1257;60305;-40
2024/02/13 04:11:54;;;;;;;12.30;6.20;;;;;;;6.65;81.19;98361.99;107052;1257;72574;-40
2024/02/13 04:14:23;;;;;;;11.00;6.00;;;;;;;6.62;81.47;98367.95;107073;1257;67660;-41
2024/02/13 04:16:51;;;;;;;10.30;5.40;;;;;;;6.54;81.70;98362.73;107064;1259;71861;-41
2024/02/13 04:19:18;;;;;;;12.30;6.10;;;;;;;6.62;81.54;98369.27;107056;1257;61703;-40
2024/02/13 04:21:46;;;;;;;12.40;5.50;;;;;;;6.66;81.29;98366.70;107144;1257;60492;-40
2024/02/13 04:24:13;;;;;;;9.00;5.80;;;;;;;6.63;81.25;98369.88;107058;1262;73225;-41
2024/02/13 04:26:41;;;;;;;14.30;6.50;;;;;;;6.59;81.53;98373.66;107125;1257;67622;-41
2024/02/13 04:29:09;;;;;;;8.90;5.70;;;;;;;6.55;81.67;98378.06;107042;1260;71466;-40
2024/02/13 04:31:38;;;;;;;11.00;6.00;;;;;;;6.51;81.70;98382.69;107036;1262;60418;-41
2024/02/13 04:34:06;;;;;;;7.10;4.30;;;;;;;6.54;81.44;98379.42;107038;1257;59110;-40
2024/02/13 04:36:37;;;;;;;10.20;5.60;;;;;;;6.54;81.25;98376.11;106999;1257;72551;-41
2024/02/13 04:39:07;;;;;;;7.90;5.30;;;;;;;6.50;81.32;98383.66;107069;1257;68342;-41
2024/02/13 04:41:36;;;;;;;8.70;5.70;;;;;;;6.45;81.32;98376.94;107060;1258;71274;-41
2024/02/13 04:44:04;;;;;;;8.20;5.60;;;;;;;6.38;81.43;98371.50;107072;1259;60546;-41
2024/02/13 04:46:31;;;;;;;6.50;4.60;;;;;;;6.34;81.11;98376.04;107125;1262;60294;-41
2024/02/13 04:49:00;;;;;;;7.10;4.00;;;;;;;6.34;80.44;98376.04;107077;1257;73846;-41
2024/02/13 04:51:28;;;;;;;6.50;4.70;;;;;;;6.33;79.79;98376.94;107113;1257;67677;-41
2024/02/13 04:53:55;;;;;;;7.50;5.10;;;;;;;6.27;79.56;98383.51;107079;1259;72453;-40
2024/02/13 04:56:23;;;;;;;11.10;5.80;;;;;;;6.21;79.97;98390.92;107095;1259;60289;-41
2024/02/13 04:58:55;;;;;;;9.50;5.60;;;;;;;6.16;80.40;98391.59;107104;1257;60034;-41
2024/02/13 05:01:24;;;;;;;8.30;5.70;;;;;;;6.11;80.57;98397.56;107150;1257;72650;-40
2024/02/13 05:09:09;;;;;;;7.30;4.80;;;;;;;6.08;79.72;98402.20;107093;1257;60302;-40
2024/02/13 05:11:40;;;;;;;6.20;3.90;;;;;;;6.03;79.44;98401.91;107080;1257;60948;-41
2024/02/13 05:14:08;;;;;;;7.10;4.20;;;;;;;5.97;79.21;98404.95;107104;1262;72600;-41
2024/02/13 05:16:38;;;;;;;10.40;4.70;;;;;;;5.91;79.01;98407.80;107090;1257;67432;-41
2024/02/13 05:19:06;;;;;;;10.20;5.10;;;;;;;5.80;78.99;98411.08;107073;1257;72359;-40
2024/02/13 05:21:35;;;;;;;6.80;4.90;;;;;;;5.84;79.33;98420.01;107054;1257;61420;-41
2024/02/13 05:24:04;;;;;;;10.50;5.00;;;;;;;5.86;79.56;98426.21;107106;1257;60142;-41
2024/02/13 05:26:33;;;;;;;11.60;4.90;;;;;;;5.85;79.93;98427.49;107113;1262;73938;-40
2024/02/13 05:29:02;;;;;;;20.20;5.60;;;;;;;5.80;80.03;98425.98;107072;1257;67416;-40
2024/02/13 05:31:29;;;;;;;16.30;4.90;;;;;;;5.76;80.27;98428.71;107071;1260;72482;-40
2024/02/13 05:33:57;;;;;;;7.90;4.80;;;;;;;5.72;80.54;98429.48;107043;1262;60937;-41
2024/02/13 05:36:25;;;;;;;6.60;4.40;;;;;;;5.75;80.49;98434.48;107027;1257;60370;-40
2024/02/13 05:38:54;;;;;;;7.90;4.40;;;;;;;5.79;80.34;98441.17;107165;1257;73861;-40
2024/02/13 05:41:21;;;;;;;17.00;5.70;;;;;;;5.78;80.45;98438.45;107094;1257;67143;-41
2024/02/13 05:43:49;;;;;;;12.80;5.00;;;;;;;5.74;80.75;98447.67;107098;1261;71469;-40
2024/02/13 05:46:18;;;;;;;20.40;5.90;;;;;;;5.71;81.11;98449.29;107119;1259;60514;-40
2024/02/13 05:48:48;;;;;;;12.30;5.40;;;;;;;5.68;81.23;98451.52;107174;1257;60349;-40
2024/02/13 05:51:15;;;;;;;10.70;5.50;;;;;;;5.69;81.19;98451.02;107132;1257;74455;-41
2024/02/13 05:53:43;;;;;;;11.90;5.40;;;;;;;5.73;81.18;98453.86;107106;1257;67348;-41
2024/02/13 05:56:12;;;;;;;12.50;5.90;;;;;;;5.72;81.34;98454.30;107086;1257;72455;-40
2024/02/13 05:58:49;;;;;;;27.10;5.80;;;;;;;5.71;81.55;98451.45;107107;1260;60596;-40
2024/02/13 06:01:18;;;;;;;20.00;6.00;;;;;;;5.68;81.73;98450.46;107084;1257;60336;-40
2024/02/13 06:03:46;;;;;;;15.70;5.70;;;;;;;5.66;81.74;98455.79;107088;1257;73796;-40
2024/02/13 06:06:14;;;;;;;7.50;5.00;;;;;;;5.69;81.64;98464.77;107103;1257;68481;-40
2024/02/13 06:08:42;;;;;;;16.10;4.90;;;;;;;5.74;81.72;98467.52;107133;1257;72699;-40
2024/02/13 06:11:10;;;;;;;19.50;5.80;;;;;;;5.75;81.89;98471.29;107079;1260;60235;-40
2024/02/13 06:13:41;;;;;;;15.00;5.50;;;;;;;5.72;82.11;98478.97;107110;1257;60562;-40
2024/02/13 06:16:09;;;;;;;10.60;6.10;;;;;;;5.67;82.22;98479.70;107114;1258;72580;-40
2024/02/13 06:18:38;;;;;;;9.80;5.90;;;;;;;5.67;82.39;98484.61;107085;1257;68698;-39
2024/02/13 06:21:06;;;;;;;10.00;5.70;;;;;;;5.71;82.50;98486.65;107084;1257;72714;-40
2024/02/13 06:23:33;;;;;;;15.00;7.40;;;;;;;5.74;82.96;98489.77;107086;1257;61044;-40
2024/02/13 06:26:01;;;;;;;10.60;7.20;;;;;;;5.73;83.41;98493.59;107121;1257;59324;-40
2024/02/13 06:28:28;;;;;;;16.90;6.60;;;;;;;5.72;83.58;98493.42;107078;1262;72623;-40
2024/02/13 06:30:56;;;;;;;11.90;6.60;;;;;;;5.76;83.70;98494.27;107092;1257;67102;-40
2024/02/13 06:33:23;;;;;;;13.40;6.50;;;;;;;5.84;83.95;98497.48;107028;1257;71934;-40
2024/02/13 06:35:51;;;;;;;14.50;7.30;;;;;;;5.87;84.22;98503.27;107030;1259;60438;-41
2024/02/13 06:38:19;;;;;;;17.10;8.20;;;;;;;5.88;84.56;98507.27;107029;1257;60394;-40
2024/02/13 06:40:47;;;;;;;15.10;7.80;;;;;;;5.91;84.84;98509.35;107025;1257;73958;-40
2024/02/13 06:43:17;;;;;;;9.60;6.40;;;;;;;5.96;84.53;98508.16;107001;1257;67229;-40
2024/02/13 06:45:45;;;;;;;10.10;6.80;;;;;;;5.97;84.39;98507.87;107073;1262;71376;-40
2024/02/13 06:48:14;;;;;;;10.90;7.40;;;;;;;5.88;85.04;98499.60;107138;1262;60015;-40
2024/02/13 06:50:42;;;;;;;13.20;8.10;;;;;;;5.97;85.60;98511.19;107214;1257;60300;-40
2024/02/13 06:53:10;;;;;;;11.70;6.80;;;;;;;6.03;85.88;98503.94;107096;1257;72604;-40
2024/02/13 06:55:38;;;;;;;9.60;6.10;;;;;;;6.13;85.62;98504.55;107146;1262;67339;-41
2024/02/13 06:58:05;;;;;;;9.70;6.80;;;;;;;6.20;85.48;98504.09;107102;1257;71070;-40
2024/02/13 07:00:33;;;;;;;11.50;7.60;;;;;;;6.21;85.62;98502.80;107070;1260;60548;-40
2024/02/13 07:03:02;;;;;;;14.30;7.30;;;;;;;6.24;86.04;98510.85;107160;1257;60325;-41
2024/02/13 07:05:30;;;;;;;11.30;6.90;;;;;;;6.31;86.31;98515.79;107102;1257;72996;-40
2024/02/13 07:07:58;;;;;;;12.70;6.60;;;;;;;6.44;86.24;98515.84;107143;1257;68361;-40
2024/02/13 07:10:26;;;;;;;12.50;7.00;;;;;;;6.55;85.86;98518.54;107120;1257;72673;-40
2024/02/13 07:12:55;;;;;;;13.90;6.50;;;;;;;6.59;86.19;98509.39;107135;1260;60629;-40
2024/02/13 07:15:22;;;;;;;12.10;6.10;;;;;;;6.67;86.23;98515.94;107094;1257;60512;-40
2024/02/13 07:17:51;;;;;;;9.70;6.50;;;;;;;6.69;86.14;98515.45;107094;1257;73922;-40
2024/02/13 07:20:27;;;;;;;13.50;6.50;;;;;;;6.75;85.95;98518.65;107058;1257;67549;-41
2024/02/13 07:22:56;;;;;;;15.00;7.00;;;;;;;6.79;85.88;98511.36;107103;1257;72477;-40
2024/02/13 07:25:24;;;;;;;11.40;7.00;;;;;;;6.88;86.04;98524.13;107035;1257;60421;-40
2024/02/13 07:27:51;;;;;;;16.30;7.60;;;;;;;6.89;86.23;98526.30;107093;1257;60263;-40
2024/02/13 07:30:19;;;;;;;12.60;6.40;;;;;;;6.91;86.33;98523.05;107232;1257;73829;-41
2024/02/13 07:32:46;;;;;;;12.70;6.20;;;;;;;6.99;86.29;98522.52;107080;1257;67115;-40
2024/02/13 07:35:15;;;;;;;13.10;7.00;;;;;;;7.10;86.45;98520.55;107097;1256;72692;-40
2024/02/13 07:37:43;;;;;;;15.50;7.80;;;;;;;7.15;86.66;98519.44;107093;1257;60345;-41
2024/02/13 07:40:13;;;;;;;14.60;6.70;;;;;;;7.22;87.16;98521.41;107126;1257;60521;-41
2024/02/13 07:42:40;;;;;;;13.70;6.30;;;;;;;7.32;87.26;98522.36;107035;1257;73880;-40
2024/02/13 07:45:08;;;;;;;12.60;6.50;;;;;;;7.48;87.16;98527.11;107097;1257;67119;-41
2024/02/13 07:47:36;;;;;;;15.70;7.80;;;;;;;7.62;86.96;98533.90;107100;1260;72718;-40
2024/02/13 07:50:09;;;;;;;15.20;6.70;;;;;;;7.74;87.21;98533.56;107082;1260;60502;-40
2024/02/13 07:52:37;;;;;;;22.50;8.50;;;;;;;7.88;86.93;98533.41;107032;1260;60408;-40
2024/02/13 07:55:05;;;;;;;11.50;6.30;;;;;;;7.98;86.10;98531.11;107060;1258;73890;-40
2024/02/13 07:57:35;;;;;;;24.40;8.60;;;;;;;8.14;85.35;98535.51;107084;1257;68361;-40
2024/02/13 08:00:03;;;;;;;15.10;6.50;;;;;;;8.27;84.48;98531.02;107052;1260;71410;-40
2024/02/13 08:02:33;;;;;;;16.20;6.90;;;;;;;8.37;83.58;98533.34;107075;1260;60413;-40
2024/02/13 08:05:00;;;;;;;30.20;17.70;;;;;;;8.43;83.38;98535.81;107034;1258;60307;-41
2024/02/13 08:07:28;;;;;;;15.20;7.50;;;;;;;8.52;83.08;98539.10;107036;1258;72633;-40
2024/02/13 08:09:56;;;;;;;16.40;8.00;;;;;;;8.60;82.45;98540.76;107085;1260;68318;-40
2024/02/13 08:12:24;;;;;;;11.60;5.80;;;;;;;8.75;82.09;98542.41;107018;1258;71463;-41
2024/02/13 08:14:52;;;;;;;17.90;8.80;;;;;;;8.95;81.30;98543.05;107078;1260;60332;-40
2024/02/13 08:17:20;;;;;;;14.40;7.40;;;;;;;9.11;80.91;98542.25;107096;1260;60421;-40
2024/02/13 08:19:47;;;;;;;14.80;6.50;;;;;;;9.28;80.41;98542.35;107097;1260;73822;-41
2024/02/13 08:22:18;;;;;;;16.00;6.90;;;;;;;9.46;80.21;98542.62;107088;1257;68486;-40
2024/02/13 08:24:46;;;;;;;14.40;6.70;;;;;;;9.65;79.54;98540.48;107106;1260;71550;-40
2024/02/13 08:27:18;;;;;;;17.10;5.60;;;;;;;9.90;78.37;98545.34;107044;1260;61754;-40
2024/02/13 08:29:46;;;;;;;15.50;5.70;;;;;;;10.11;76.70;98538.02;107068;1262;60335;-41
2024/02/13 08:32:13;;;;;;;14.70;5.50;;;;;;;10.27;76.19;98537.98;107063;1260;72475;-40
2024/02/13 08:34:41;;;;;;;20.40;6.50;;;;;;;10.40;74.76;98534.74;107054;1257;67208;-40
2024/02/13 08:37:09;;;;;;;13.20;5.30;;;;;;;10.47;74.19;98540.20;107033;1260;72743;-41
2024/02/13 08:39:36;;;;;;;18.90;7.30;;;;;;;10.55;74.23;98537.55;107074;1260;60438;-41
2024/02/13 08:42:04;;;;;;;9.70;5.30;;;;;;;10.72;74.71;98535.77;107101;1258;60590;-40
2024/02/13 08:44:34;;;;;;;12.60;5.50;;;;;;;10.97;73.98;98534.73;107080;1257;73928;-40
2024/02/13 08:47:02;;;;;;;11.30;5.70;;;;;;;11.17;73.18;98537.51;107099;1258;68393;-41
2024/02/13 08:49:30;;;;;;;10.50;5.50;;;;;;;11.33;72.64;98537.78;107082;1260;71462;-40
2024/02/13 08:51:58;;;;;;;15.20;6.10;;;;;;;11.50;71.47;98536.12;107080;1260;60367;-40
2024/02/13 08:54:26;;;;;;;13.50;5.90;;;;;;;11.65;70.26;98536.22;107065;1262;61015;-41
2024/02/13 08:56:53;;;;;;;14.70;6.40;;;;;;;11.75;68.90;98536.02;107086;1258;73886;-41
2024/02/13 08:59:21;;;;;;;14.00;5.50;;;;;;;11.85;69.27;98539.77;107071;1260;68333;-40
2024/02/13 09:01:49;;;;;;;15.00;5.80;;;;;;;12.01;68.43;98538.45;107052;1262;72745;-40
2024/02/13 09:04:16;;;;;;;11.40;5.30;;;;;;;12.16;67.03;98544.72;107040;1257;60448;-41
2024/02/13 09:06:44;;;;;;;13.20;5.10;;;;;;;12.23;66.34;98546.04;107047;1260;60361;-40
2024/02/13 09:09:12;;;;;;;11.80;5.50;;;;;;;12.34;66.01;98546.18;107080;1257;72741;-40
2024/02/13 09:11:40;;;;;;;10.80;4.90;;;;;;;12.46;66.16;98544.07;107063;1262;68865;-41
2024/02/13 09:14:09;;;;;;;11.10;5.20;;;;;;;12.60;66.23;98542.63;107027;1262;72831;-41
2024/02/13 09:16:37;;;;;;;13.10;5.50;;;;;;;12.76;65.94;98543.21;107044;1260;60447;-40
2024/02/13 09:19:07;;;;;;;11.70;5.80;;;;;;;12.93;64.49;98550.70;107061;1258;60319;-40
2024/02/13 09:21:35;;;;;;;11.70;5.20;;;;;;;13.02;62.84;98549.65;107076;1260;73882;-41
2024/02/13 09:24:04;;;;;;;14.20;5.20;;;;;;;13.04;62.59;98549.09;107078;1260;68390;-41
2024/02/13 09:26:31;;;;;;;10.20;4.80;;;;;;;13.13;62.88;98555.30;107086;1257;71377;-40
2024/02/13 09:29:01;;;;;;;12.10;5.20;;;;;;;13.18;62.29;98552.26;107048;1258;60444;-41
2024/02/13 09:31:29;;;;;;;13.10;6.10;;;;;;;13.18;62.22;98551.39;107134;1258;60453;-41
2024/02/13 09:33:57;;;;;;;13.20;5.60;;;;;;;13.17;61.55;98552.09;107124;1257;73987;-41
2024/02/13 09:36:25;;;;;;;13.40;5.90;;;;;;;13.13;61.13;98552.52;107032;1259;67743;-41
2024/02/13 09:38:53;;;;;;;19.10;6.40;;;;;;;13.07;60.95;98545.74;107050;1260;72768;-41
2024/02/13 09:41:21;;;;;;;14.20;5.60;;;;;;;12.90;61.34;98547.05;107058;1260;60111;-41
2024/02/13 09:43:49;;;;;;;14.50;5.70;;;;;;;12.74;62.04;98547.11;107064;1260;60153;-41
2024/02/13 09:46:18;;;;;;;16.10;6.10;;;;;;;12.66;62.20;98547.36;107054;1262;74534;-41
2024/02/13 09:48:46;;;;;;;13.90;6.00;;;;;;;12.55;62.56;98550.33;107083;1260;68832;-41
2024/02/13 09:51:18;;;;;;;14.20;5.40;;;;;;;12.45;63.37;98546.55;107035;1257;71663;-42
2024/02/13 09:53:47;;;;;;;16.60;5.80;;;;;;;12.51;63.22;98549.88;107084;1260;60543;-41
2024/02/13 09:56:15;;;;;;;15.00;5.70;;;;;;;12.61;62.93;98547.23;107045;1257;60093;-41
2024/02/13 09:58:46;;;;;;;14.30;6.70;;;;;;;12.66;63.07;98550.15;107058;1257;73955;-41
2024/02/13 10:01:15;;;;;;;13.70;6.70;;;;;;;12.69;63.39;98552.33;107031;1257;67668;-41
2024/02/13 10:03:43;;;;;;;14.90;6.50;;;;;;;12.71;63.83;98552.24;107032;1262;72732;-41
2024/02/13 10:06:11;;;;;;;16.60;8.10;;;;;;;12.72;63.96;98550.85;106889;1257;184624;-41
2024/02/13 10:11:11;;;;;;;21.90;8.80;;;;;;;12.51;63.98;98551.27;104099;1291;600992;-40
2024/02/13 10:13:39;;;;;;;16.30;7.80;;;;;;;12.33;64.61;98551.93;106614;1267;61801;-41
2024/02/13 10:16:19;;;;;;;15.40;6.90;;;;;;;12.26;65.09;98553.09;106586;1266;60187;-40
2024/02/13 10:18:51;;;;;;;17.00;7.40;;;;;;;12.29;65.45;98555.52;106718;1267;71400;-41
2024/02/13 10:21:29;;;;;;;14.90;7.30;;;;;;;12.32;65.27;98561.79;106649;1266;67633;-41
2024/02/13 10:24:09;;;;;;;13.80;7.10;;;;;;;12.33;65.60;98560.08;106609;1263;171583;-41
2024/02/13 10:26:37;;;;;;;17.80;7.30;;;;;;;12.45;65.83;98559.29;106831;1263;60033;-41
2024/02/13 10:29:06;;;;;;;15.00;7.60;;;;;;;12.55;64.83;98561.30;106823;1264;62416;-40
2024/02/13 10:31:35;;;;;;;16.10;7.90;;;;;;;12.58;64.80;98556.00;106713;1263;72422;-41
2024/02/13 10:34:04;;;;;;;13.50;6.60;;;;;;;12.66;64.27;98560.65;107298;1257;68373;-41
2024/02/13 10:36:32;;;;;;;12.20;7.70;;;;;;;12.63;64.24;98558.79;107213;1260;73061;-41
2024/02/13 10:39:03;;;;;;;12.90;6.90;;;;;;;12.59;64.41;98566.17;107162;1258;61766;-40
2024/02/13 10:41:33;;;;;;;15.80;7.80;;;;;;;12.58;64.43;98560.73;107242;1257;59623;-41
2024/02/13 10:44:02;;;;;;;13.70;7.20;;;;;;;12.66;65.06;98563.91;107224;1257;72262;-41
2024/02/13 10:46:29;;;;;;;15.30;8.00;;;;;;;12.78;65.40;98563.17;107222;1257;67716;-41
2024/02/13 10:49:15;;;;;;;15.50;7.50;;;;;;;12.95;65.29;98566.23;107235;1257;71460;-41
2024/02/13 10:51:43;;;;;;;14.60;7.50;;;;;;;13.23;64.01;98568.80;107211;1257;60151;-41
2024/02/13 10:54:12;;;;;;;11.30;7.50;;;;;;;13.41;63.61;98568.31;107221;1257;60017;-41
2024/02/13 10:56:40;;;;;;;17.00;8.00;;;;;;;13.63;63.67;98562.59;107047;1256;73674;-41
2024/02/13 10:59:07;;;;;;;15.30;8.00;;;;;;;13.85;62.60;98565.25;107193;1257;68891;-41
2024/02/13 11:01:35;;;;;;;13.60;7.40;;;;;;;14.03;61.60;98566.90;107240;1257;72743;-40
2024/02/13 11:04:04;;;;;;;17.00;8.20;;;;;;;14.16;60.63;98561.35;107036;1257;60126;-41
2024/02/13 11:06:32;;;;;;;13.20;7.60;;;;;;;14.21;60.38;98562.32;107302;1257;59727;-40
2024/02/13 11:09:01;;;;;;;14.20;6.90;;;;;;;14.26;60.15;98567.26;107138;1257;70944;-41
2024/02/13 11:11:29;;;;;;;12.40;7.00;;;;;;;14.30;59.38;98564.81;107272;1257;67906;-41
2024/02/13 11:13:57;;;;;;;13.50;7.10;;;;;;;14.25;59.92;98566.33;107267;1257;72665;-41
2024/02/13 11:16:25;;;;;;;12.80;7.40;;;;;;;14.30;60.29;98568.71;107277;1257;60130;-41
2024/02/13 11:18:52;;;;;;;12.10;7.20;;;;;;;14.47;60.32;98566.32;107218;1256;60803;-41
2024/02/13 11:21:21;;;;;;;14.40;7.30;;;;;;;14.66;59.83;98568.30;107247;1257;73139;-40
2024/02/13 11:23:51;;;;;;;12.70;7.40;;;;;;;14.81;58.91;98567.38;107241;1257;68588;-41
2024/02/13 11:26:19;;;;;;;13.10;7.10;;;;;;;14.86;58.48;98568.66;107242;1257;72778;-40
2024/02/13 11:28:48;;;;;;;18.00;7.20;;;;;;;14.86;57.80;98569.27;107230;1257;60133;-40
2024/02/13 11:31:16;;;;;;;13.60;6.60;;;;;;;14.76;56.60;98570.71;107220;1257;60146;-41
2024/02/13 11:34:03;;;;;;;17.20;6.80;;;;;;;14.57;57.07;98571.61;107237;1257;71823;-40
2024/02/13 11:36:34;;;;;;;17.40;6.80;;;;;;;14.32;57.94;98570.33;107247;1257;68860;-40
2024/02/13 11:39:05;;;;;;;11.50;5.80;;;;;;;14.11;58.28;98567.47;107208;1257;71847;-41